Rio Tala, Argentina
Current Conditions -  °F | °C
As of 4:00 AM on Sunday 26 Oct 2014 (Local Time) from SADF Reporting Station
Clear Clear  
Wind Chill: 20°   Ceiling: Unl
Heat Index: 20°   Visibility: 6mi
Dew Point: 18°   Wind: 3mph
Humidity: 88%   Direction: 360°N
Pressure: 29.83"   Gusts: NA
Location:  33.76°S, 59.65°W
Report Text: SADF 260700Z 36003KT CAVOK 20/18 Q1010
Loading
Personal Weather Stations






























Interactive Weather Map
Tropical Storm Tracking
New forecast layout! Learn more

10-Day Weather Forecast

Advertisements
Track Severe Weather on mobile